McCurtain, Oklahoma
Current Conditions -  °F | °C
As of 8:15 AM on Sunday 23 Nov 2014 (Local Time) from KGZL Reporting Station
Broken Clouds Broken Clouds  
Wind Chill: 14°   Ceiling: 2100
Heat Index: 14°   Visibility: 8mi
Dew Point: 14°   Wind: 8mph
Humidity: 100%   Direction: 120°ESE
Pressure: 29.54"   Gusts: NA
Location:  35.15°N, 94.97°W
Report Text: KGZL 231415Z AUTO 12007KT 8SM BKN021 14/14 A2954 RMK AO2
Loading
Personal Weather Stations






























Interactive Weather Map New forecast layout! Learn more

10-Day Weather Forecast

Advertisements
Track Severe Weather on mobile